sensor_id;sensor_type;location;lat;lon;timestamp;temperature;humidity
37530;DHT22;23374;52.758;6.872;2022-07-10T00:00:03;14.90;1.00
37530;DHT22;23374;52.758;6.872;2022-07-10T00:02:23;14.80;1.00
37530;DHT22;23374;52.758;6.872;2022-07-10T00:04:43;14.70;1.00
37530;DHT22;23374;52.758;6.872;2022-07-10T00:07:03;14.70;34.40
37530;DHT22;23374;52.758;6.872;2022-07-10T00:09:25;14.60;1.00
37530;DHT22;23374;52.758;6.872;2022-07-10T00:11:47;14.60;1.00
37530;DHT22;23374;52.758;6.872;2022-07-10T00:14:08;14.60;1.00
37530;DHT22;23374;52.758;6.872;2022-07-10T00:16:29;14.60;1.00
37530;DHT22;23374;52.758;6.872;2022-07-10T00:18:49;14.50;1.00
37530;DHT22;23374;52.758;6.872;2022-07-10T00:21:10;14.50;99.90
37530;DHT22;23374;52.758;6.872;2022-07-10T00:23:30;14.50;99.90
37530;DHT22;23374;52.758;6.872;2022-07-10T00:25:51;14.40;1.00
37530;DHT22;23374;52.758;6.872;2022-07-10T00:28:11;14.40;99.90
37530;DHT22;23374;52.758;6.872;2022-07-10T00:30:31;14.40;1.00
37530;DHT22;23374;52.758;6.872;2022-07-10T00:32:51;14.30;99.90
37530;DHT22;23374;52.758;6.872;2022-07-10T00:35:12;14.30;99.90
37530;DHT22;23374;52.758;6.872;2022-07-10T00:37:32;14.30;1.00
37530;DHT22;23374;52.758;6.872;2022-07-10T00:39:53;14.30;99.90
37530;DHT22;23374;52.758;6.872;2022-07-10T00:42:15;14.30;1.00
37530;DHT22;23374;52.758;6.872;2022-07-10T00:44:36;14.30;1.00
37530;DHT22;23374;52.758;6.872;2022-07-10T00:46:56;14.20;1.00
37530;DHT22;23374;52.758;6.872;2022-07-10T00:49:16;14.20;1.00
37530;DHT22;23374;52.758;6.872;2022-07-10T00:51:37;14.20;1.00
37530;DHT22;23374;52.758;6.872;2022-07-10T00:53:58;14.20;99.90
37530;DHT22;23374;52.758;6.872;2022-07-10T00:56:22;14.20;99.90
37530;DHT22;23374;52.758;6.872;2022-07-10T00:58:45;14.20;48.80
37530;DHT22;23374;52.758;6.872;2022-07-10T01:01:06;14.10;99.90
37530;DHT22;23374;52.758;6.872;2022-07-10T01:03:26;14.10;99.90
37530;DHT22;23374;52.758;6.872;2022-07-10T01:05:46;14.10;99.90
37530;DHT22;23374;52.758;6.872;2022-07-10T01:08:06;14.10;1.00
37530;DHT22;23374;52.758;6.872;2022-07-10T01:10:27;14.10;1.00
37530;DHT22;23374;52.758;6.872;2022-07-10T01:12:48;14.10;99.90
37530;DHT22;23374;52.758;6.872;2022-07-10T01:15:09;14.10;1.00
37530;DHT22;23374;52.758;6.872;2022-07-10T01:17:31;14.10;99.90
37530;DHT22;23374;52.758;6.872;2022-07-10T01:19:52;14.10;99.90
37530;DHT22;23374;52.758;6.872;2022-07-10T01:22:12;14.10;99.90
37530;DHT22;23374;52.758;6.872;2022-07-10T01:24:32;14.10;99.90
37530;DHT22;23374;52.758;6.872;2022-07-10T01:26:53;14.10;99.90
37530;DHT22;23374;52.758;6.872;2022-07-10T01:29:13;14.10;99.90
37530;DHT22;23374;52.758;6.872;2022-07-10T01:31:34;14.10;1.00
37530;DHT22;23374;52.758;6.872;2022-07-10T01:33:55;14.20;1.00
37530;DHT22;23374;52.758;6.872;2022-07-10T01:36:16;14.20;99.90
37530;DHT22;23374;52.758;6.872;2022-07-10T01:38:38;14.20;1.00
37530;DHT22;23374;52.758;6.872;2022-07-10T01:40:58;14.20;49.20
37530;DHT22;23374;52.758;6.872;2022-07-10T01:43:19;14.20;99.90
37530;DHT22;23374;52.758;6.872;2022-07-10T01:45:39;14.20;99.90
37530;DHT22;23374;52.758;6.872;2022-07-10T01:48:00;14.20;36.60
37530;DHT22;23374;52.758;6.872;2022-07-10T01:50:20;14.20;99.90
37530;DHT22;23374;52.758;6.872;2022-07-10T01:52:41;14.30;67.30
37530;DHT22;23374;52.758;6.872;2022-07-10T01:55:01;14.30;99.90
37530;DHT22;23374;52.758;6.872;2022-07-10T01:57:22;14.30;99.90
37530;DHT22;23374;52.758;6.872;2022-07-10T01:59:42;14.30;1.00
37530;DHT22;23374;52.758;6.872;2022-07-10T02:02:06;14.30;1.00
37530;DHT22;23374;52.758;6.872;2022-07-10T02:04:27;14.30;1.00
37530;DHT22;23374;52.758;6.872;2022-07-10T02:07:03;14.30;1.00
37530;DHT22;23374;52.758;6.872;2022-07-10T02:09:23;14.30;1.00
37530;DHT22;23374;52.758;6.872;2022-07-10T02:11:44;14.20;1.00
37530;DHT22;23374;52.758;6.872;2022-07-10T02:14:04;14.20;1.00
37530;DHT22;23374;52.758;6.872;2022-07-10T02:16:24;14.20;99.90
37530;DHT22;23374;52.758;6.872;2022-07-10T02:18:45;14.20;99.90
37530;DHT22;23374;52.758;6.872;2022-07-10T02:21:05;14.10;1.00
37530;DHT22;23374;52.758;6.872;2022-07-10T02:23:25;14.10;99.90
37530;DHT22;23374;52.758;6.872;2022-07-10T02:25:45;14.10;99.90
37530;DHT22;23374;52.758;6.872;2022-07-10T02:28:05;14.00;99.90
37530;DHT22;23374;52.758;6.872;2022-07-10T02:30:28;14.00;1.00
37530;DHT22;23374;52.758;6.872;2022-07-10T02:32:48;14.00;1.00
37530;DHT22;23374;52.758;6.872;2022-07-10T02:35:08;14.00;99.90
37530;DHT22;23374;52.758;6.872;2022-07-10T02:37:29;13.90;1.00
37530;DHT22;23374;52.758;6.872;2022-07-10T02:39:49;13.90;1.00
37530;DHT22;23374;52.758;6.872;2022-07-10T02:42:10;13.90;1.00
37530;DHT22;23374;52.758;6.872;2022-07-10T02:44:30;13.80;1.00
37530;DHT22;23374;52.758;6.872;2022-07-10T02:46:50;13.80;1.00
37530;DHT22;23374;52.758;6.872;2022-07-10T02:49:10;13.80;1.00
37530;DHT22;23374;52.758;6.872;2022-07-10T02:51:31;13.80;1.00
37530;DHT22;23374;52.758;6.872;2022-07-10T02:53:51;13.80;1.00
37530;DHT22;23374;52.758;6.872;2022-07-10T02:56:11;13.80;1.00
37530;DHT22;23374;52.758;6.872;2022-07-10T02:58:33;13.80;1.00
37530;DHT22;23374;52.758;6.872;2022-07-10T03:00:54;13.80;1.00
37530;DHT22;23374;52.758;6.872;2022-07-10T03:03:14;13.80;99.90
37530;DHT22;23374;52.758;6.872;2022-07-10T03:05:37;13.80;99.90
37530;DHT22;23374;52.758;6.872;2022-07-10T03:07:57;13.80;99.90
37530;DHT22;23374;52.758;6.872;2022-07-10T03:10:18;13.70;99.90
37530;DHT22;23374;52.758;6.872;2022-07-10T03:12:38;13.70;99.90
37530;DHT22;23374;52.758;6.872;2022-07-10T03:14:58;13.70;99.90
37530;DHT22;23374;52.758;6.872;2022-07-10T03:17:19;13.70;99.90
37530;DHT22;23374;52.758;6.872;2022-07-10T03:19:39;13.70;99.90
37530;DHT22;23374;52.758;6.872;2022-07-10T03:21:59;13.60;1.00
37530;DHT22;23374;52.758;6.872;2022-07-10T03:24:19;13.60;99.90
37530;DHT22;23374;52.758;6.872;2022-07-10T03:26:40;13.60;99.90
37530;DHT22;23374;52.758;6.872;2022-07-10T03:29:00;13.60;99.90
37530;DHT22;23374;52.758;6.872;2022-07-10T03:31:20;13.60;99.90
37530;DHT22;23374;52.758;6.872;2022-07-10T03:33:40;13.60;83.20
37530;DHT22;23374;52.758;6.872;2022-07-10T03:36:00;13.60;1.00
37530;DHT22;23374;52.758;6.872;2022-07-10T03:38:23;13.60;1.00
37530;DHT22;23374;52.758;6.872;2022-07-10T03:40:44;13.60;1.00
37530;DHT22;23374;52.758;6.872;2022-07-10T03:43:07;13.60;1.00
37530;DHT22;23374;52.758;6.872;2022-07-10T03:45:27;13.60;1.00
37530;DHT22;23374;52.758;6.872;2022-07-10T03:47:47;13.60;1.00
37530;DHT22;23374;52.758;6.872;2022-07-10T03:50:08;13.60;1.00
37530;DHT22;23374;52.758;6.872;2022-07-10T03:52:29;13.70;1.00
37530;DHT22;23374;52.758;6.872;2022-07-10T03:54:49;13.70;99.90
37530;DHT22;23374;52.758;6.872;2022-07-10T03:57:09;13.60;99.90
37530;DHT22;23374;52.758;6.872;2022-07-10T03:59:48;13.60;99.90
37530;DHT22;23374;52.758;6.872;2022-07-10T04:02:08;13.60;1.00
37530;DHT22;23374;52.758;6.872;2022-07-10T04:04:28;13.60;99.90
37530;DHT22;23374;52.758;6.872;2022-07-10T04:06:49;13.50;1.00
37530;DHT22;23374;52.758;6.872;2022-07-10T04:09:09;13.50;1.00
37530;DHT22;23374;52.758;6.872;2022-07-10T04:11:29;13.50;1.00
37530;DHT22;23374;52.758;6.872;2022-07-10T04:13:50;13.60;1.00
37530;DHT22;23374;52.758;6.872;2022-07-10T04:16:11;13.60;99.90
37530;DHT22;23374;52.758;6.872;2022-07-10T04:18:32;13.70;99.90
37530;DHT22;23374;52.758;6.872;2022-07-10T04:20:53;13.70;72.00
37530;DHT22;23374;52.758;6.872;2022-07-10T04:23:13;13.70;34.70
37530;DHT22;23374;52.758;6.872;2022-07-10T04:25:33;13.80;42.80
37530;DHT22;23374;52.758;6.872;2022-07-10T04:27:54;13.80;1.00
37530;DHT22;23374;52.758;6.872;2022-07-10T04:30:14;13.80;1.00
37530;DHT22;23374;52.758;6.872;2022-07-10T04:32:34;13.90;1.00
37530;DHT22;23374;52.758;6.872;2022-07-10T04:34:55;13.90;1.00
37530;DHT22;23374;52.758;6.872;2022-07-10T04:37:16;13.90;1.00
37530;DHT22;23374;52.758;6.872;2022-07-10T04:39:37;14.00;1.00
37530;DHT22;23374;52.758;6.872;2022-07-10T04:41:57;14.00;1.00
37530;DHT22;23374;52.758;6.872;2022-07-10T04:44:19;14.00;1.00
37530;DHT22;23374;52.758;6.872;2022-07-10T04:46:39;14.10;1.00
37530;DHT22;23374;52.758;6.872;2022-07-10T04:48:59;14.10;1.00
37530;DHT22;23374;52.758;6.872;2022-07-10T04:51:19;14.10;1.00
37530;DHT22;23374;52.758;6.872;2022-07-10T04:53:40;14.10;99.90
37530;DHT22;23374;52.758;6.872;2022-07-10T04:56:00;14.10;1.00
37530;DHT22;23374;52.758;6.872;2022-07-10T04:58:22;14.10;1.00
37530;DHT22;23374;52.758;6.872;2022-07-10T05:00:42;14.10;1.00
37530;DHT22;23374;52.758;6.872;2022-07-10T05:03:02;14.10;1.00
37530;DHT22;23374;52.758;6.872;2022-07-10T05:05:23;14.10;99.90
37530;DHT22;23374;52.758;6.872;2022-07-10T05:07:43;14.10;99.90
37530;DHT22;23374;52.758;6.872;2022-07-10T05:10:04;14.10;57.40
37530;DHT22;23374;52.758;6.872;2022-07-10T05:12:25;14.10;99.90
37530;DHT22;23374;52.758;6.872;2022-07-10T05:14:46;14.10;99.90
37530;DHT22;23374;52.758;6.872;2022-07-10T05:17:06;14.10;99.90
37530;DHT22;23374;52.758;6.872;2022-07-10T05:19:26;14.20;99.90
37530;DHT22;23374;52.758;6.872;2022-07-10T05:21:47;14.20;99.90
37530;DHT22;23374;52.758;6.872;2022-07-10T05:24:07;14.30;13.10
37530;DHT22;23374;52.758;6.872;2022-07-10T05:26:28;14.30;99.90
37530;DHT22;23374;52.758;6.872;2022-07-10T05:28:48;14.30;70.10
37530;DHT22;23374;52.758;6.872;2022-07-10T05:31:08;14.30;1.00
37530;DHT22;23374;52.758;6.872;2022-07-10T05:33:29;14.40;99.90
37530;DHT22;23374;52.758;6.872;2022-07-10T05:35:49;14.40;1.00
37530;DHT22;23374;52.758;6.872;2022-07-10T05:38:09;14.40;1.00
37530;DHT22;23374;52.758;6.872;2022-07-10T05:40:30;14.50;1.00
37530;DHT22;23374;52.758;6.872;2022-07-10T05:42:50;14.60;1.00
37530;DHT22;23374;52.758;6.872;2022-07-10T05:45:11;14.60;99.90
37530;DHT22;23374;52.758;6.872;2022-07-10T05:47:32;14.70;99.90
37530;DHT22;23374;52.758;6.872;2022-07-10T05:49:56;14.70;99.90
37530;DHT22;23374;52.758;6.872;2022-07-10T05:52:16;14.80;99.90
37530;DHT22;23374;52.758;6.872;2022-07-10T05:54:36;14.90;99.90
37530;DHT22;23374;52.758;6.872;2022-07-10T05:56:58;14.90;99.90
37530;DHT22;23374;52.758;6.872;2022-07-10T05:59:18;15.00;74.80
37530;DHT22;23374;52.758;6.872;2022-07-10T06:01:38;15.00;25.30
37530;DHT22;23374;52.758;6.872;2022-07-10T06:03:59;15.10;99.90
37530;DHT22;23374;52.758;6.872;2022-07-10T06:06:19;15.10;54.50
37530;DHT22;23374;52.758;6.872;2022-07-10T06:08:39;15.20;97.50
37530;DHT22;23374;52.758;6.872;2022-07-10T06:10:59;15.20;99.90
37530;DHT22;23374;52.758;6.872;2022-07-10T06:13:20;15.20;99.90
37530;DHT22;23374;52.758;6.872;2022-07-10T06:15:41;15.20;99.90
37530;DHT22;23374;52.758;6.872;2022-07-10T06:18:01;15.20;99.90
37530;DHT22;23374;52.758;6.872;2022-07-10T06:20:21;15.20;99.90
37530;DHT22;23374;52.758;6.872;2022-07-10T06:22:42;15.20;1.00
37530;DHT22;23374;52.758;6.872;2022-07-10T06:25:07;15.30;1.00
37530;DHT22;23374;52.758;6.872;2022-07-10T06:27:28;15.30;97.20
37530;DHT22;23374;52.758;6.872;2022-07-10T06:29:48;15.30;99.90
37530;DHT22;23374;52.758;6.872;2022-07-10T06:32:08;15.30;99.90
37530;DHT22;23374;52.758;6.872;2022-07-10T06:34:29;15.40;99.90
37530;DHT22;23374;52.758;6.872;2022-07-10T06:36:49;15.50;99.90
37530;DHT22;23374;52.758;6.872;2022-07-10T06:39:09;15.60;1.00
37530;DHT22;23374;52.758;6.872;2022-07-10T06:41:29;15.60;1.00
37530;DHT22;23374;52.758;6.872;2022-07-10T06:43:49;15.60;1.00
37530;DHT22;23374;52.758;6.872;2022-07-10T06:46:10;15.60;99.90
37530;DHT22;23374;52.758;6.872;2022-07-10T06:48:30;15.60;1.00
37530;DHT22;23374;52.758;6.872;2022-07-10T06:50:50;15.70;1.00
37530;DHT22;23374;52.758;6.872;2022-07-10T06:53:10;15.60;99.90
37530;DHT22;23374;52.758;6.872;2022-07-10T06:55:31;15.60;1.00
37530;DHT22;23374;52.758;6.872;2022-07-10T06:57:52;15.60;1.00
37530;DHT22;23374;52.758;6.872;2022-07-10T07:00:13;15.60;1.00
37530;DHT22;23374;52.758;6.872;2022-07-10T07:02:33;15.60;1.00
37530;DHT22;23374;52.758;6.872;2022-07-10T07:04:54;15.60;1.00
37530;DHT22;23374;52.758;6.872;2022-07-10T07:07:15;15.60;1.00
37530;DHT22;23374;52.758;6.872;2022-07-10T07:09:41;15.60;1.00
37530;DHT22;23374;52.758;6.872;2022-07-10T07:12:05;15.60;91.30
37530;DHT22;23374;52.758;6.872;2022-07-10T07:14:25;15.60;99.90
37530;DHT22;23374;52.758;6.872;2022-07-10T07:16:47;15.60;99.90
37530;DHT22;23374;52.758;6.872;2022-07-10T07:19:17;15.60;1.00
37530;DHT22;23374;52.758;6.872;2022-07-10T07:21:37;15.50;1.00
37530;DHT22;23374;52.758;6.872;2022-07-10T07:24:17;15.40;1.00
37530;DHT22;23374;52.758;6.872;2022-07-10T07:26:40;15.40;94.90
37530;DHT22;23374;52.758;6.872;2022-07-10T07:29:00;15.40;99.90
37530;DHT22;23374;52.758;6.872;2022-07-10T07:31:20;15.40;99.90
37530;DHT22;23374;52.758;6.872;2022-07-10T07:33:40;15.50;99.90
37530;DHT22;23374;52.758;6.872;2022-07-10T07:36:00;15.50;99.90
37530;DHT22;23374;52.758;6.872;2022-07-10T07:38:20;15.60;99.90
37530;DHT22;23374;52.758;6.872;2022-07-10T07:40:41;15.70;99.90
37530;DHT22;23374;52.758;6.872;2022-07-10T07:43:01;15.80;99.90
37530;DHT22;23374;52.758;6.872;2022-07-10T07:45:23;15.80;99.90
37530;DHT22;23374;52.758;6.872;2022-07-10T07:47:55;15.90;99.90
37530;DHT22;23374;52.758;6.872;2022-07-10T07:50:19;16.00;99.90
37530;DHT22;23374;52.758;6.872;2022-07-10T07:52:40;16.00;28.30
37530;DHT22;23374;52.758;6.872;2022-07-10T07:55:01;16.10;7.10
37530;DHT22;23374;52.758;6.872;2022-07-10T07:57:21;16.20;1.00
37530;DHT22;23374;52.758;6.872;2022-07-10T07:59:41;16.30;1.00
37530;DHT22;23374;52.758;6.872;2022-07-10T08:02:01;16.40;1.00
37530;DHT22;23374;52.758;6.872;2022-07-10T08:04:22;16.50;1.00
37530;DHT22;23374;52.758;6.872;2022-07-10T08:06:42;16.70;1.00
37530;DHT22;23374;52.758;6.872;2022-07-10T08:09:02;16.80;1.00
37530;DHT22;23374;52.758;6.872;2022-07-10T08:11:22;17.00;1.00
37530;DHT22;23374;52.758;6.872;2022-07-10T08:13:42;17.10;99.90
37530;DHT22;23374;52.758;6.872;2022-07-10T08:16:04;17.20;99.90
37530;DHT22;23374;52.758;6.872;2022-07-10T08:18:24;17.20;1.00
37530;DHT22;23374;52.758;6.872;2022-07-10T08:20:44;17.30;72.90
37530;DHT22;23374;52.758;6.872;2022-07-10T08:23:04;17.30;1.00
37530;DHT22;23374;52.758;6.872;2022-07-10T08:25:25;17.40;1.00
37530;DHT22;23374;52.758;6.872;2022-07-10T08:27:46;17.30;1.00
37530;DHT22;23374;52.758;6.872;2022-07-10T08:30:08;17.30;99.90
37530;DHT22;23374;52.758;6.872;2022-07-10T08:32:28;17.20;1.00
37530;DHT22;23374;52.758;6.872;2022-07-10T08:34:49;17.10;1.00
37530;DHT22;23374;52.758;6.872;2022-07-10T08:37:09;17.00;1.00
37530;DHT22;23374;52.758;6.872;2022-07-10T08:39:29;16.90;99.90
37530;DHT22;23374;52.758;6.872;2022-07-10T08:41:50;16.80;1.00
37530;DHT22;23374;52.758;6.872;2022-07-10T08:44:11;16.70;1.00
37530;DHT22;23374;52.758;6.872;2022-07-10T08:46:32;16.70;1.00
37530;DHT22;23374;52.758;6.872;2022-07-10T08:48:53;16.70;1.00
37530;DHT22;23374;52.758;6.872;2022-07-10T08:51:41;16.70;1.00
37530;DHT22;23374;52.758;6.872;2022-07-10T08:54:04;16.60;1.00
37530;DHT22;23374;52.758;6.872;2022-07-10T08:56:26;16.60;1.00
37530;DHT22;23374;52.758;6.872;2022-07-10T08:58:47;16.50;1.00
37530;DHT22;23374;52.758;6.872;2022-07-10T09:01:10;16.60;20.90
37530;DHT22;23374;52.758;6.872;2022-07-10T09:03:30;16.60;43.60
37530;DHT22;23374;52.758;6.872;2022-07-10T09:05:51;16.60;92.50
37530;DHT22;23374;52.758;6.872;2022-07-10T09:08:26;16.60;81.80
37530;DHT22;23374;52.758;6.872;2022-07-10T09:11:27;16.70;99.90
37530;DHT22;23374;52.758;6.872;2022-07-10T09:14:03;16.70;99.90
37530;DHT22;23374;52.758;6.872;2022-07-10T09:16:34;16.70;15.30
37530;DHT22;23374;52.758;6.872;2022-07-10T09:18:55;16.70;57.30
37530;DHT22;23374;52.758;6.872;2022-07-10T09:21:15;16.80;20.00
37530;DHT22;23374;52.758;6.872;2022-07-10T09:23:36;16.90;3.30
37530;DHT22;23374;52.758;6.872;2022-07-10T09:25:56;16.90;1.00
37530;DHT22;23374;52.758;6.872;2022-07-10T09:28:20;17.00;1.00
37530;DHT22;23374;52.758;6.872;2022-07-10T09:30:41;17.20;1.00
37530;DHT22;23374;52.758;6.872;2022-07-10T09:33:32;17.30;1.00
37530;DHT22;23374;52.758;6.872;2022-07-10T09:36:11;17.40;1.00
37530;DHT22;23374;52.758;6.872;2022-07-10T09:40:27;17.40;1.00
37530;DHT22;23374;52.758;6.872;2022-07-10T09:42:48;17.40;99.90
37530;DHT22;23374;52.758;6.872;2022-07-10T09:45:16;17.30;99.90
37530;DHT22;23374;52.758;6.872;2022-07-10T09:47:38;17.20;99.90
37530;DHT22;23374;52.758;6.872;2022-07-10T09:49:59;17.10;1.00
37530;DHT22;23374;52.758;6.872;2022-07-10T09:52:20;17.10;1.00
37530;DHT22;23374;52.758;6.872;2022-07-10T09:54:40;17.00;1.00
37530;DHT22;23374;52.758;6.872;2022-07-10T09:57:03;16.90;1.00
37530;DHT22;23374;52.758;6.872;2022-07-10T09:59:24;16.90;1.00
37530;DHT22;23374;52.758;6.872;2022-07-10T10:01:47;16.80;99.90
37530;DHT22;23374;52.758;6.872;2022-07-10T10:04:08;16.70;99.90
37530;DHT22;23374;52.758;6.872;2022-07-10T10:06:30;16.70;99.90
37530;DHT22;23374;52.758;6.872;2022-07-10T10:09:41;16.70;99.90
37530;DHT22;23374;52.758;6.872;2022-07-10T10:12:17;16.70;99.90
37530;DHT22;23374;52.758;6.872;2022-07-10T10:14:41;16.70;99.90
37530;DHT22;23374;52.758;6.872;2022-07-10T10:17:02;16.80;99.90
37530;DHT22;23374;52.758;6.872;2022-07-10T10:19:26;16.80;99.90
37530;DHT22;23374;52.758;6.872;2022-07-10T10:22:06;16.80;40.80
37530;DHT22;23374;52.758;6.872;2022-07-10T10:24:31;16.80;94.50
37530;DHT22;23374;52.758;6.872;2022-07-10T10:26:52;16.80;43.20
37530;DHT22;23374;52.758;6.872;2022-07-10T10:29:13;16.80;92.40
37530;DHT22;23374;52.758;6.872;2022-07-10T10:31:33;16.80;99.90
37530;DHT22;23374;52.758;6.872;2022-07-10T10:33:55;16.80;99.90
37530;DHT22;23374;52.758;6.872;2022-07-10T10:36:44;16.90;99.90
37530;DHT22;23374;52.758;6.872;2022-07-10T10:39:10;16.90;99.90
37530;DHT22;23374;52.758;6.872;2022-07-10T10:41:47;17.00;99.90
37530;DHT22;23374;52.758;6.872;2022-07-10T10:44:29;17.00;99.90
37530;DHT22;23374;52.758;6.872;2022-07-10T10:47:00;17.10;99.90
37530;DHT22;23374;52.758;6.872;2022-07-10T10:52:11;17.10;96.30
37530;DHT22;23374;52.758;6.872;2022-07-10T10:55:00;17.20;59.80
37530;DHT22;23374;52.758;6.872;2022-07-10T10:57:40;17.20;99.90
37530;DHT22;23374;52.758;6.872;2022-07-10T11:00:07;17.30;59.20
37530;DHT22;23374;52.758;6.872;2022-07-10T11:02:33;17.30;23.80
37530;DHT22;23374;52.758;6.872;2022-07-10T11:37:33;17.30;47.50
37530;DHT22;23374;52.758;6.872;2022-07-10T11:40:08;17.90;99.90
37530;DHT22;23374;52.758;6.872;2022-07-10T11:42:53;18.10;1.00
37530;DHT22;23374;52.758;6.872;2022-07-10T11:45:33;18.20;1.00
37530;DHT22;23374;52.758;6.872;2022-07-10T11:47:57;18.20;99.90
37530;DHT22;23374;52.758;6.872;2022-07-10T11:50:18;18.30;1.00
37530;DHT22;23374;52.758;6.872;2022-07-10T11:52:38;18.30;1.00
37530;DHT22;23374;52.758;6.872;2022-07-10T11:55:17;18.40;1.00
37530;DHT22;23374;52.758;6.872;2022-07-10T11:57:39;18.40;1.00
37530;DHT22;23374;52.758;6.872;2022-07-10T12:00:01;18.50;1.00
37530;DHT22;23374;52.758;6.872;2022-07-10T12:02:23;18.60;1.00
37530;DHT22;23374;52.758;6.872;2022-07-10T12:04:44;18.60;1.00
37530;DHT22;23374;52.758;6.872;2022-07-10T12:07:04;18.70;1.00
37530;DHT22;23374;52.758;6.872;2022-07-10T12:09:24;18.70;1.00
37530;DHT22;23374;52.758;6.872;2022-07-10T12:12:04;18.80;1.00
37530;DHT22;23374;52.758;6.872;2022-07-10T12:14:26;18.80;1.00
37530;DHT22;23374;52.758;6.872;2022-07-10T12:16:51;18.90;99.90
37530;DHT22;23374;52.758;6.872;2022-07-10T12:19:14;18.90;1.00
37530;DHT22;23374;52.758;6.872;2022-07-10T12:21:35;19.00;1.00
37530;DHT22;23374;52.758;6.872;2022-07-10T12:23:56;19.00;1.00
37530;DHT22;23374;52.758;6.872;2022-07-10T12:26:16;19.00;1.00
37530;DHT22;23374;52.758;6.872;2022-07-10T12:28:57;18.90;1.00
37530;DHT22;23374;52.758;6.872;2022-07-10T12:31:23;18.90;1.00
37530;DHT22;23374;52.758;6.872;2022-07-10T12:33:54;18.70;99.90
37530;DHT22;23374;52.758;6.872;2022-07-10T12:36:17;18.40;1.00
37530;DHT22;23374;52.758;6.872;2022-07-10T12:38:37;18.20;1.00
37530;DHT22;23374;52.758;6.872;2022-07-10T12:41:11;18.00;1.00
37530;DHT22;23374;52.758;6.872;2022-07-10T12:43:32;17.90;99.90
37530;DHT22;23374;52.758;6.872;2022-07-10T12:46:16;17.70;43.50
37530;DHT22;23374;52.758;6.872;2022-07-10T12:48:37;17.60;99.90
37530;DHT22;23374;52.758;6.872;2022-07-10T12:51:25;17.60;99.90
37530;DHT22;23374;52.758;6.872;2022-07-10T12:53:46;17.70;99.90
37530;DHT22;23374;52.758;6.872;2022-07-10T12:56:06;17.80;99.90
37530;DHT22;23374;52.758;6.872;2022-07-10T12:58:27;18.00;99.90
37530;DHT22;23374;52.758;6.872;2022-07-10T13:00:48;18.10;99.90
37530;DHT22;23374;52.758;6.872;2022-07-10T13:03:19;18.00;1.00
37530;DHT22;23374;52.758;6.872;2022-07-10T13:05:42;18.00;1.00
37530;DHT22;23374;52.758;6.872;2022-07-10T13:08:20;17.90;1.00
37530;DHT22;23374;52.758;6.872;2022-07-10T13:10:57;17.70;1.00
37530;DHT22;23374;52.758;6.872;2022-07-10T13:13:21;17.60;1.00
37530;DHT22;23374;52.758;6.872;2022-07-10T13:15:43;17.60;1.00
37530;DHT22;23374;52.758;6.872;2022-07-10T13:18:17;17.60;1.00
37530;DHT22;23374;52.758;6.872;2022-07-10T13:20:38;17.60;61.70
37530;DHT22;23374;52.758;6.872;2022-07-10T13:22:58;17.70;1.00
37530;DHT22;23374;52.758;6.872;2022-07-10T13:25:19;17.70;1.00
37530;DHT22;23374;52.758;6.872;2022-07-10T13:27:39;17.70;1.00
37530;DHT22;23374;52.758;6.872;2022-07-10T13:29:59;17.70;1.00
37530;DHT22;23374;52.758;6.872;2022-07-10T13:32:19;17.60;1.00
37530;DHT22;23374;52.758;6.872;2022-07-10T13:34:40;17.60;1.00
37530;DHT22;23374;52.758;6.872;2022-07-10T13:37:01;17.60;1.00
37530;DHT22;23374;52.758;6.872;2022-07-10T13:39:21;17.60;1.00
37530;DHT22;23374;52.758;6.872;2022-07-10T13:41:42;17.70;1.00
37530;DHT22;23374;52.758;6.872;2022-07-10T13:44:02;17.70;1.00
37530;DHT22;23374;52.758;6.872;2022-07-10T13:46:22;17.80;1.00
37530;DHT22;23374;52.758;6.872;2022-07-10T13:48:42;17.90;1.00
37530;DHT22;23374;52.758;6.872;2022-07-10T13:51:03;18.10;1.00
37530;DHT22;23374;52.758;6.872;2022-07-10T13:53:23;18.30;1.00
37530;DHT22;23374;52.758;6.872;2022-07-10T13:55:44;18.30;99.90
37530;DHT22;23374;52.758;6.872;2022-07-10T13:58:05;18.40;1.00
37530;DHT22;23374;52.758;6.872;2022-07-10T14:00:26;18.50;99.90
37530;DHT22;23374;52.758;6.872;2022-07-10T14:02:47;18.60;99.90
37530;DHT22;23374;52.758;6.872;2022-07-10T14:05:07;18.60;99.90
37530;DHT22;23374;52.758;6.872;2022-07-10T14:07:31;18.70;95.10
37530;DHT22;23374;52.758;6.872;2022-07-10T14:09:51;18.60;33.00
37530;DHT22;23374;52.758;6.872;2022-07-10T14:12:12;18.60;40.60
37530;DHT22;23374;52.758;6.872;2022-07-10T14:14:32;18.50;30.00
37530;DHT22;23374;52.758;6.872;2022-07-10T14:16:52;18.40;99.90
37530;DHT22;23374;52.758;6.872;2022-07-10T14:19:12;18.40;99.90
37530;DHT22;23374;52.758;6.872;2022-07-10T14:21:33;18.50;1.00
37530;DHT22;23374;52.758;6.872;2022-07-10T14:23:53;18.50;1.00
37530;DHT22;23374;52.758;6.872;2022-07-10T14:26:16;18.60;1.00
37530;DHT22;23374;52.758;6.872;2022-07-10T14:28:36;18.60;99.90
37530;DHT22;23374;52.758;6.872;2022-07-10T14:30:57;18.60;99.90
37530;DHT22;23374;52.758;6.872;2022-07-10T14:33:19;18.50;1.00
37530;DHT22;23374;52.758;6.872;2022-07-10T14:35:39;18.50;1.00
37530;DHT22;23374;52.758;6.872;2022-07-10T14:38:00;18.50;1.00
37530;DHT22;23374;52.758;6.872;2022-07-10T14:40:20;18.50;99.90
37530;DHT22;23374;52.758;6.872;2022-07-10T14:42:40;18.50;99.90
37530;DHT22;23374;52.758;6.872;2022-07-10T14:45:01;18.40;99.90
37530;DHT22;23374;52.758;6.872;2022-07-10T14:47:21;18.50;99.90
37530;DHT22;23374;52.758;6.872;2022-07-10T14:49:42;18.50;99.90
37530;DHT22;23374;52.758;6.872;2022-07-10T14:52:02;18.50;99.90
37530;DHT22;23374;52.758;6.872;2022-07-10T14:54:22;18.60;1.00
37530;DHT22;23374;52.758;6.872;2022-07-10T14:56:43;18.60;1.00
37530;DHT22;23374;52.758;6.872;2022-07-10T14:59:04;18.60;1.00
37530;DHT22;23374;52.758;6.872;2022-07-10T15:01:24;18.60;1.00
37530;DHT22;23374;52.758;6.872;2022-07-10T15:03:44;18.70;1.00
37530;DHT22;23374;52.758;6.872;2022-07-10T15:06:05;18.60;99.90
37530;DHT22;23374;52.758;6.872;2022-07-10T15:08:26;18.60;1.00
37530;DHT22;23374;52.758;6.872;2022-07-10T15:10:46;18.70;1.00
37530;DHT22;23374;52.758;6.872;2022-07-10T15:13:07;18.70;1.00
37530;DHT22;23374;52.758;6.872;2022-07-10T15:15:27;18.80;1.00
37530;DHT22;23374;52.758;6.872;2022-07-10T15:17:48;18.70;1.00
37530;DHT22;23374;52.758;6.872;2022-07-10T15:20:10;18.80;1.00
37530;DHT22;23374;52.758;6.872;2022-07-10T15:22:31;18.80;1.00
37530;DHT22;23374;52.758;6.872;2022-07-10T15:24:52;18.80;1.00
37530;DHT22;23374;52.758;6.872;2022-07-10T15:27:13;18.80;1.00
37530;DHT22;23374;52.758;6.872;2022-07-10T15:29:34;18.80;1.00
37530;DHT22;23374;52.758;6.872;2022-07-10T15:31:54;18.80;1.00
37530;DHT22;23374;52.758;6.872;2022-07-10T15:34:14;18.80;1.00
37530;DHT22;23374;52.758;6.872;2022-07-10T15:36:35;18.90;1.00
37530;DHT22;23374;52.758;6.872;2022-07-10T15:38:56;18.90;1.00
37530;DHT22;23374;52.758;6.872;2022-07-10T15:41:16;18.90;99.90
37530;DHT22;23374;52.758;6.872;2022-07-10T15:43:36;19.00;99.90